Terminal Aerodrome Forecast
Issued by NWS

Home | Current Version | Previous Version | Text Only | Print | Product List | Glossary On
Versions: 1 2 3 4 5 6 7 8 9 10 11 12 13 14 15 16 17 18
179
FTUS43 KTOP 200520
TAFMHK
TAF
KMHK 200520Z 2006/2106 08008KT P6SM VCSH OVC010
     FM200700 06008KT P6SM VCSH OVC010
     FM200900 29007KT P6SM VCSH OVC008
     FM201400 28009KT P6SM BKN011=

USA.gov is the U.S. government's official web portal to all federal, state and local government web resources and services.